createdAt,value
2018-04-12T00:09:03.579Z,2.77
2018-04-12T00:19:06.799Z,2.80
2018-04-12T00:29:10.176Z,2.73
2018-04-12T00:39:13.375Z,2.63
2018-04-12T00:49:17.343Z,2.47
2018-04-12T00:59:21.541Z,2.33
2018-04-12T01:09:25.606Z,2.60
2018-04-12T01:19:28.787Z,2.40
2018-04-12T01:29:31.975Z,2.33
2018-04-12T01:39:35.149Z,2.60
2018-04-12T01:49:39.288Z,2.37
2018-04-12T01:59:42.476Z,2.40
2018-04-12T02:09:45.650Z,2.50
2018-04-12T02:19:48.825Z,2.47
2018-04-12T02:29:52.065Z,2.40
2018-04-12T02:39:56.050Z,2.00
2018-04-12T02:49:59.995Z,2.20
2018-04-12T03:00:03.231Z,2.00
2018-04-12T03:10:06.475Z,2.20
2018-04-12T03:20:09.656Z,2.00
2018-04-12T03:30:12.863Z,1.97
2018-04-12T03:40:16.739Z,2.10
2018-04-12T03:50:20.726Z,2.10
2018-04-12T04:00:23.892Z,1.93
2018-04-12T04:10:27.146Z,1.83
2018-04-12T04:20:48.182Z,2.20
2018-04-12T04:30:51.472Z,2.00
2018-04-12T04:40:54.656Z,1.93
2018-04-12T04:50:57.868Z,2.00
2018-04-12T05:01:02.636Z,1.80
2018-04-12T05:11:05.831Z,2.00
2018-04-12T05:21:09.127Z,1.90
2018-04-12T05:31:12.296Z,1.87
2018-04-12T05:41:16.265Z,2.00
2018-04-12T05:51:19.444Z,1.87
2018-04-12T06:01:23.574Z,1.80
2018-04-12T06:11:26.745Z,2.10
2018-04-12T06:21:29.951Z,1.97
2018-04-12T06:31:33.132Z,1.57
2018-04-12T06:41:36.332Z,1.70
2018-04-12T06:51:40.319Z,1.80
2018-04-12T07:01:43.525Z,1.87
2018-04-12T07:11:46.727Z,1.70
2018-04-12T07:21:49.935Z,1.80
2018-04-12T07:31:53.131Z,1.90
2018-04-12T07:41:56.310Z,2.00
2018-04-12T07:52:00.280Z,1.60
2018-04-12T08:02:03.513Z,1.80
2018-04-12T08:12:07.495Z,1.80
2018-04-12T08:22:10.788Z,1.70
2018-04-12T08:32:14.745Z,1.60
2018-04-12T08:42:18.373Z,1.90
2018-04-12T08:52:21.580Z,1.50
2018-04-12T09:02:24.758Z,1.80
2018-04-12T09:12:27.972Z,1.53
2018-04-12T09:22:31.161Z,1.70
2018-04-12T09:32:34.382Z,2.10
2018-04-12T09:42:37.562Z,1.70
2018-04-12T09:52:41.572Z,1.30
2018-04-12T10:02:50.290Z,1.20
2018-04-12T10:12:53.523Z,1.27
2018-04-12T10:22:56.725Z,1.17
2018-04-12T10:32:59.924Z,0.83
2018-04-12T10:43:04.115Z,1.37
2018-04-12T10:53:08.149Z,1.13
2018-04-12T11:03:11.398Z,1.10
2018-04-12T11:13:14.572Z,1.80
2018-04-12T11:23:18.760Z,2.80
2018-04-12T11:33:22.061Z,2.07
2018-04-12T11:43:26.018Z,1.60
2018-04-12T11:53:30.022Z,1.40
2018-04-12T12:03:33.208Z,1.40
2018-04-12T12:13:36.746Z,1.50
2018-04-12T12:23:39.968Z,1.13
2018-04-12T12:33:43.167Z,1.00
2018-04-12T12:43:47.257Z,1.07
2018-04-12T12:53:52.294Z,1.30
2018-04-12T13:03:55.492Z,1.67
2018-04-12T13:13:58.681Z,1.03
2018-04-12T13:24:01.923Z,1.00
2018-04-12T13:34:06.631Z,1.20
2018-04-12T13:44:10.593Z,1.30
2018-04-12T13:54:14.549Z,1.20
2018-04-12T14:04:18.484Z,0.87
2018-04-12T14:14:21.668Z,0.70
2018-04-12T14:24:25.835Z,1.00
2018-04-12T14:34:29.030Z,0.63
2018-04-12T14:44:33.749Z,0.60
2018-04-12T14:54:37.069Z,0.80
2018-04-12T15:04:41.065Z,0.50
2018-04-12T15:14:45.237Z,0.80
2018-04-12T15:24:48.409Z,0.40
2018-04-12T15:34:52.404Z,0.50
2018-04-12T15:44:56.349Z,0.60
2018-04-12T15:54:59.609Z,0.50
2018-04-12T16:05:02.748Z,0.40
2018-04-12T16:15:06.775Z,0.30
2018-04-12T16:25:09.989Z,0.40
2018-04-12T16:35:13.199Z,0.30
2018-04-12T16:45:17.263Z,0.20
2018-04-12T16:55:21.308Z,0.23
2018-04-12T17:05:24.498Z,0.20
2018-04-12T17:15:27.673Z,0.10
2018-04-12T17:25:30.872Z,0.10
2018-04-12T17:35:34.062Z,0.30
2018-04-12T17:45:37.261Z,0.17
2018-04-12T17:55:40.461Z,0.20
2018-04-12T18:05:43.648Z,0.40
2018-04-12T18:15:46.906Z,0.20
2018-04-12T18:25:50.200Z,0.33
2018-04-12T18:35:54.434Z,0.70
2018-04-12T18:45:57.703Z,0.53
2018-04-12T18:56:01.050Z,0.50
2018-04-12T19:06:04.569Z,0.40
2018-04-12T19:16:07.779Z,0.30
2018-04-12T19:26:11.909Z,0.40
2018-04-12T19:36:15.855Z,0.40
2018-04-12T19:46:19.069Z,0.30
2018-04-12T19:56:22.827Z,0.37
2018-04-12T20:06:26.024Z,0.53
2018-04-12T20:16:30.996Z,0.40
2018-04-12T20:26:34.180Z,0.57
2018-04-12T20:36:37.443Z,0.40
2018-04-12T20:46:42.468Z,0.33
2018-04-12T20:56:45.661Z,0.37
2018-04-12T21:06:48.862Z,0.33
2018-04-12T21:16:52.074Z,0.17
2018-04-12T21:26:55.283Z,0.30
2018-04-12T21:36:58.563Z,0.27
2018-04-12T21:47:02.569Z,0.40
2018-04-12T21:57:06.504Z,0.40
2018-04-12T22:07:09.687Z,0.30
2018-04-12T22:17:12.871Z,0.47
2018-04-12T22:27:17.618Z,0.50
2018-04-12T22:37:20.803Z,0.43
2018-04-12T22:47:24.156Z,0.50
2018-04-12T22:57:27.359Z,0.40
2018-04-12T23:07:30.539Z,0.30
2018-04-12T23:17:33.750Z,0.47
2018-04-12T23:27:37.026Z,0.33
2018-04-12T23:37:40.229Z,0.33
2018-04-12T23:47:43.515Z,0.40
2018-04-12T23:57:47.578Z,0.30
